Terminal Aerodrome Forecast
Issued by NWS

Home | Current Version | Previous Version | Text Only | Print | Product List | Glossary On
Versions: 1 2 3 4 5 6 7 8 9 10 11 12 13 14 15 16 17 18 19 20 21 22 23 24 25 26 27 28 29 30 31 32 33
000
FTUS45 KREV 240521
TAFTRK
TAF
KTRK 240521Z 2406/2506 00000KT P6SM SCT020 BKN035
     FM240900 00000KT 1SM BR SCT002 SCT030
     FM241100 00000KT 1/2SM FG BKN002
     FM241600 VRB04KT P6SM SCT025 BKN040
     FM242100 31007KT P6SM VCSH SCT030 BKN050
     FM250300 VRB03KT P6SM SCT020 SCT040 BKN080=

USA.gov is the U.S. government's official web portal to all federal, state and local government web resources and services.